Time;durP1;ratioP1;P1;durP2;ratioP2;P2;SDS_P1;SDS_P2;PMS_P1;PMS_P2;Temp;Humidity;BMP_temperature;BMP_pressure;BME280_temperature;BME280_humidity;BME280_pressure;Samples;Min_cycle;Max_cycle;Signal;HPM_P1;HPM_P2
2022/01/27 00:02:51;;;;;;;34.72;19.50;;;;;;;;;;5134235;27;20035;-60
2022/01/27 00:05:20;;;;;;;40.88;20.08;;;;;;;;;;5134356;27;20092;-61
2022/01/27 00:08:01;;;;;;;39.78;20.27;;;;;;;;;;5134044;27;20413;-62
2022/01/27 00:10:47;;;;;;;38.92;19.52;;;;;;;;;;5134736;27;20064;-61
2022/01/27 00:13:15;;;;;;;35.03;18.92;;;;;;;;;;5134428;27;20038;-60
2022/01/27 00:15:46;;;;;;;37.65;19.67;;;;;;;;;;5133987;27;20110;-61
2022/01/27 00:18:16;;;;;;;33.55;19.17;;;;;;;;;;5134407;27;20435;-61
2022/01/27 00:20:42;;;;;;;34.17;19.20;;;;;;;;;;5134059;27;20068;-61
2022/01/27 00:23:08;;;;;;;36.78;18.20;;;;;;;;;;5134206;27;20039;-61
2022/01/27 00:25:35;;;;;;;36.45;19.98;;;;;;;;;;5131456;27;20035;-62
2022/01/27 00:28:01;;;;;;;35.67;19.17;;;;;;;;;;5133874;27;20074;-61
2022/01/27 00:30:27;;;;;;;37.67;19.50;;;;;;;;;;5134332;27;20031;-61
2022/01/27 00:32:53;;;;;;;37.90;19.88;;;;;;;;;;5133823;27;20074;-59
2022/01/27 00:35:19;;;;;;;37.60;18.77;;;;;;;;;;5134317;27;20462;-59
2022/01/27 00:37:45;;;;;;;36.60;18.77;;;;;;;;;;5133702;27;20082;-61
2022/01/27 00:40:12;;;;;;;31.67;18.38;;;;;;;;;;5133674;27;20035;-60
2022/01/27 00:42:41;;;;;;;30.30;15.98;;;;;;;;;;5134143;27;20092;-61
2022/01/27 00:45:07;;;;;;;36.47;18.80;;;;;;;;;;5115397;27;20087;-61
2022/01/27 00:47:33;;;;;;;33.05;18.38;;;;;;;;;;5133653;27;20035;-60
2022/01/27 00:49:59;;;;;;;32.08;17.95;;;;;;;;;;5132892;27;20181;-61
2022/01/27 00:52:37;;;;;;;34.22;17.27;;;;;;;;;;5132808;27;20109;-62
2022/01/27 00:55:03;;;;;;;34.17;17.52;;;;;;;;;;5114846;27;20051;-61
2022/01/27 01:00:03;;;;;;;35.70;17.55;;;;;;;;;;5133105;27;20120;-60
2022/01/27 01:02:52;;;;;;;31.25;15.68;;;;;;;;;;5133503;27;20038;-60
2022/01/27 01:07:48;;;;;;;35.58;17.17;;;;;;;;;;5133276;27;20039;-60
2022/01/27 01:15:32;;;;;;;30.17;15.93;;;;;;;;;;5133231;27;20404;-60
2022/01/27 01:32:12;;;;;;;34.95;16.90;;;;;;;;;;5089613;28;20044;-63
2022/01/27 01:34:45;;;;;;;34.35;16.77;;;;;;;;;;5089488;28;20067;-60
2022/01/27 01:37:11;;;;;;;28.77;16.35;;;;;;;;;;5088885;28;20044;-60
2022/01/27 01:39:37;;;;;;;33.92;18.08;;;;;;;;;;5089416;28;20039;-60
2022/01/27 01:42:06;;;;;;;32.03;16.23;;;;;;;;;;5089184;28;20131;-61
2022/01/27 01:44:32;;;;;;;31.92;16.02;;;;;;;;;;5089344;28;20044;-61
2022/01/27 01:46:58;;;;;;;31.60;16.38;;;;;;;;;;5089178;28;20066;-61
2022/01/27 01:49:26;;;;;;;33.22;16.20;;;;;;;;;;5088804;28;20578;-61
2022/01/27 01:51:53;;;;;;;32.88;16.25;;;;;;;;;;5089243;28;20087;-61
2022/01/27 01:54:19;;;;;;;29.73;17.50;;;;;;;;;;5088662;28;20119;-61
2022/01/27 01:56:45;;;;;;;29.58;17.20;;;;;;;;;;5114476;27;20557;-60
2022/01/27 01:59:12;;;;;;;37.70;17.90;;;;;;;;;;5113549;27;20042;-61
2022/01/27 02:01:38;;;;;;;32.08;16.98;;;;;;;;;;5131899;27;20409;-63
2022/01/27 02:04:08;;;;;;;36.88;17.48;;;;;;;;;;5131861;27;20425;-60
2022/01/27 02:06:42;;;;;;;34.22;16.85;;;;;;;;;;5132085;27;20047;-61
2022/01/27 02:09:30;;;;;;;36.38;18.35;;;;;;;;;;5113710;27;20406;-60
2022/01/27 02:20:11;;;;;;;36.85;19.38;;;;;;;;;;5132087;27;20055;-61
2022/01/27 02:22:38;;;;;;;36.08;18.05;;;;;;;;;;5131748;27;20062;-61
2022/01/27 02:25:04;;;;;;;36.40;18.00;;;;;;;;;;5127210;27;20054;-61
2022/01/27 02:27:30;;;;;;;35.85;17.70;;;;;;;;;;5111667;27;20096;-61
2022/01/27 02:29:57;;;;;;;36.92;18.20;;;;;;;;;;5132111;27;20028;-61
2022/01/27 02:32:24;;;;;;;39.35;19.65;;;;;;;;;;5131791;27;20084;-62
2022/01/27 02:34:50;;;;;;;34.72;18.70;;;;;;;;;;5131818;27;20110;-60
2022/01/27 02:37:16;;;;;;;36.60;18.35;;;;;;;;;;5131808;27;20051;-60
2022/01/27 02:39:42;;;;;;;39.05;19.42;;;;;;;;;;5131582;27;20031;-60
2022/01/27 02:42:21;;;;;;;37.45;19.05;;;;;;;;;;5113602;27;20043;-61
2022/01/27 02:44:47;;;;;;;35.60;19.50;;;;;;;;;;5131737;27;20051;-61
2022/01/27 02:47:14;;;;;;;39.90;19.00;;;;;;;;;;5131652;27;20049;-61
2022/01/27 02:49:40;;;;;;;38.65;18.33;;;;;;;;;;5127546;27;20425;-61
2022/01/27 02:52:06;;;;;;;42.28;20.13;;;;;;;;;;5131668;27;20125;-60
2022/01/27 02:54:32;;;;;;;37.13;20.23;;;;;;;;;;5131190;27;20039;-60
2022/01/27 02:56:58;;;;;;;35.92;18.38;;;;;;;;;;5131236;27;20035;-60
2022/01/27 02:59:24;;;;;;;37.30;19.00;;;;;;;;;;5129565;27;20051;-61
2022/01/27 03:01:51;;;;;;;34.85;18.15;;;;;;;;;;5130643;27;20122;-61
2022/01/27 03:04:18;;;;;;;36.30;18.25;;;;;;;;;;5131239;27;20448;-60
2022/01/27 03:06:45;;;;;;;38.63;18.73;;;;;;;;;;5112490;27;20044;-61
2022/01/27 03:09:11;;;;;;;35.03;19.75;;;;;;;;;;5128036;27;20046;-60
2022/01/27 03:11:39;;;;;;;37.85;20.35;;;;;;;;;;5129615;28;20042;-61
2022/01/27 03:14:06;;;;;;;33.03;18.52;;;;;;;;;;5130151;27;20039;-62
2022/01/27 03:16:32;;;;;;;35.22;18.35;;;;;;;;;;5131302;27;20035;-61
2022/01/27 03:18:58;;;;;;;38.78;19.38;;;;;;;;;;5130954;28;20038;-61
2022/01/27 03:21:24;;;;;;;39.42;19.45;;;;;;;;;;5130362;28;20122;-61
2022/01/27 03:23:50;;;;;;;36.45;18.70;;;;;;;;;;5129072;28;20042;-61
2022/01/27 03:26:16;;;;;;;34.97;19.05;;;;;;;;;;5131054;28;20043;-63
2022/01/27 03:28:42;;;;;;;39.47;19.13;;;;;;;;;;5130694;28;20054;-60
2022/01/27 03:31:08;;;;;;;36.05;18.10;;;;;;;;;;5125861;28;20047;-60
2022/01/27 03:33:36;;;;;;;39.30;19.58;;;;;;;;;;5127942;28;20466;-61
2022/01/27 03:36:02;;;;;;;37.95;20.30;;;;;;;;;;5112322;28;20047;-61
2022/01/27 03:38:28;;;;;;;39.90;20.08;;;;;;;;;;5130839;28;20064;-61
2022/01/27 03:40:54;;;;;;;37.45;18.13;;;;;;;;;;5129775;28;20035;-61
2022/01/27 03:43:20;;;;;;;38.55;19.00;;;;;;;;;;5130896;28;20393;-61
2022/01/27 03:45:46;;;;;;;37.47;19.55;;;;;;;;;;5129693;28;20031;-62
2022/01/27 03:48:12;;;;;;;40.72;19.23;;;;;;;;;;5112085;28;20044;-61
2022/01/27 03:50:38;;;;;;;40.90;21.60;;;;;;;;;;5130838;28;20035;-61
2022/01/27 03:53:04;;;;;;;42.72;20.10;;;;;;;;;;5128701;28;20046;-60
2022/01/27 03:55:30;;;;;;;37.50;20.48;;;;;;;;;;5130778;28;20027;-61
2022/01/27 03:57:56;;;;;;;41.38;20.33;;;;;;;;;;5130399;28;20087;-61
2022/01/27 04:00:22;;;;;;;38.00;20.40;;;;;;;;;;5112417;28;20074;-60
2022/01/27 04:03:01;;;;;;;41.00;19.58;;;;;;;;;;5129544;28;20039;-59
2022/01/27 04:05:34;;;;;;;38.42;18.77;;;;;;;;;;5128967;27;20121;-59
2022/01/27 04:08:00;;;;;;;40.28;19.48;;;;;;;;;;5129819;27;20047;-61
2022/01/27 04:10:26;;;;;;;40.13;19.27;;;;;;;;;;5129870;28;20409;-61
2022/01/27 04:12:52;;;;;;;36.70;18.50;;;;;;;;;;5130207;28;20489;-60
2022/01/27 04:15:18;;;;;;;41.35;20.08;;;;;;;;;;5130437;28;20096;-59
2022/01/27 04:17:44;;;;;;;38.20;20.45;;;;;;;;;;5130438;28;20401;-60
2022/01/27 04:20:10;;;;;;;38.40;19.70;;;;;;;;;;5130519;28;20043;-61
2022/01/27 04:22:36;;;;;;;35.28;19.83;;;;;;;;;;5131280;28;20050;-60
2022/01/27 04:25:02;;;;;;;41.50;20.15;;;;;;;;;;5130831;27;20122;-61
2022/01/27 04:27:32;;;;;;;37.30;18.70;;;;;;;;;;5133772;27;20042;-61
2022/01/27 04:29:59;;;;;;;39.03;18.85;;;;;;;;;;5134055;27;20039;-61
2022/01/27 04:32:32;;;;;;;39.40;19.00;;;;;;;;;;5134287;27;20043;-60
2022/01/27 04:35:04;;;;;;;42.10;18.90;;;;;;;;;;5133945;27;20435;-59
2022/01/27 04:37:34;;;;;;;;;;;5.40;99.90;;;;;;5134857;27;20117;-60
2022/01/27 04:40:08;;;;;;;39.25;19.13;;;;;;;;;;5134118;27;19919;-59
2022/01/27 04:42:51;;;;;;;37.33;18.02;;;;;;;;;;5133954;27;20475;-63
2022/01/27 04:45:20;;;;;;;34.10;16.33;;;;;;;;;;5133575;27;20043;-60
2022/01/27 04:47:51;;;;;;;36.75;18.63;;;;;;;;;;5133944;27;20504;-59
2022/01/27 04:50:17;;;;;;;34.42;18.23;;;;;;;;;;5115306;27;20065;-60
2022/01/27 04:52:46;;;;;;;35.03;18.77;;;;;;;;;;5133925;27;20035;-60
2022/01/27 04:55:14;;;;;;;32.13;17.42;;;;;;;;;;5133420;27;20039;-61
2022/01/27 04:57:43;;;;;;;43.58;18.75;;;;;;;;;;5133958;27;20378;-60
2022/01/27 05:00:12;;;;;;;39.05;18.55;;;;;;;;;;5133699;27;20087;-61
2022/01/27 05:02:49;;;;;;;42.25;18.67;;;;;;;;;;5133800;27;20110;-60
2022/01/27 05:05:15;;;;;;;34.33;17.35;;;;;;;;;;5133192;27;20212;-61
2022/01/27 05:07:41;;;;;;;41.35;18.60;;;;;;;;;;5133158;27;20043;-61
2022/01/27 05:10:13;;;;;;;36.15;17.80;;;;;;;;;;5133531;27;20079;-62
2022/01/27 05:12:47;;;;;;;;;;;;;;;;;;5134154;27;20050;-60
2022/01/27 05:15:13;;;;;;;37.28;18.92;;;;;;;;;;5114988;27;19923;-60
2022/01/27 05:17:39;;;;;;;36.17;17.88;;;;;;;;;;5133575;27;20118;-60
2022/01/27 05:20:06;;;;;;;35.28;17.15;;;;;;;;;;5118485;27;20065;-60
2022/01/27 05:22:32;;;;;;;41.97;18.38;;;;;;;;;;5133069;27;20496;-60
2022/01/27 05:24:58;;;;;;;34.67;17.30;;;;;;;;;;5133233;27;20043;-60
2022/01/27 05:27:24;;;;;;;38.10;18.05;;;;;;;;;;5132515;27;20039;-60
2022/01/27 05:29:52;;;;;;;34.38;16.73;;;;;;;;;;5133020;27;20031;-60
2022/01/27 05:32:18;;;;;;;35.78;16.15;;;;;;;;;;5132615;27;20035;-61
2022/01/27 05:34:44;;;;;;;33.47;16.67;;;;;;;;;;5132935;27;20042;-61
2022/01/27 05:37:10;;;;;;;29.02;14.30;;;;;;;;;;5132270;27;20043;-60
2022/01/27 05:39:36;;;;;;;37.55;17.15;;;;;;;;;;5132453;27;20058;-60
2022/01/27 05:42:03;;;;;;;34.42;16.40;;;;;;;;;;5129334;27;20042;-62
2022/01/27 05:44:31;;;;;;;34.60;16.23;;;;;;;;;;5132095;27;20046;-61
2022/01/27 05:46:57;;;;;;;38.22;17.48;;;;;;;;;;5132048;27;20134;-60
2022/01/27 05:49:23;;;;;;;37.30;16.58;;;;;;;;;;5130343;27;20060;-60
2022/01/27 05:51:49;;;;;;;32.42;15.38;;;;;;;;;;5132308;27;20481;-59
2022/01/27 05:54:15;;;;;;;33.20;16.33;;;;;;;;;;5130844;27;20036;-61
2022/01/27 05:56:41;;;;;;;31.45;16.75;;;;;;;;;;5132177;27;20496;-61
2022/01/27 05:59:07;;;;;;;33.33;16.45;;;;;;;;;;5113157;27;20114;-60
2022/01/27 06:01:33;;;;;;;36.42;17.42;;;;;;;;;;5131490;27;20123;-61
2022/01/27 06:03:59;;;;;;;43.65;16.70;;;;;;;;;;5131858;27;20035;-61
2022/01/27 06:06:25;;;;;;;43.75;18.65;;;;;;;;;;5131913;27;20091;-60
2022/01/27 06:08:51;;;;;;;39.58;18.20;;;;;;;;;;5113752;27;20416;-60
2022/01/27 06:11:17;;;;;;;40.58;17.80;;;;;;;;;;5130343;27;20042;-60
2022/01/27 06:13:43;;;;;;;40.65;18.33;;;;;;;;;;5131539;27;20449;-61
2022/01/27 06:16:11;;;;;;;38.92;18.05;;;;;;;;;;5131608;27;20039;-61
2022/01/27 06:18:38;;;;;;;40.65;19.40;;;;;;;;;;5131509;27;20043;-61
2022/01/27 06:21:06;;;;;;;44.38;18.20;;;;;;;;;;5126650;27;20386;-61
2022/01/27 06:23:32;;;;;;;44.65;18.67;;;;;;;;;;5129676;27;20087;-60
2022/01/27 06:25:58;;;;;;;44.70;18.55;;;;;;;;;;5131869;27;20389;-61
2022/01/27 06:28:24;;;;;;;48.20;19.17;;;;;;;;;;5131746;27;20117;-61
2022/01/27 06:30:50;;;;;;;53.05;19.65;;;;;;;;;;5131667;27;20114;-62
2022/01/27 06:33:17;;;;;;;48.72;18.95;;;;;;;;;;5132260;27;20034;-61
2022/01/27 06:35:43;;;;;;;50.45;20.17;;;;;;;;;;5131730;27;20035;-61
2022/01/27 06:38:09;;;;;;;48.55;19.25;;;;;;;;;;5131822;27;20067;-61
2022/01/27 06:40:35;;;;;;;46.40;19.20;;;;;;;;;;5131507;27;20039;-59
2022/01/27 06:43:01;;;;;;;55.72;19.83;;;;;;;;;;5131070;27;20070;-61
2022/01/27 06:45:27;;;;;;;49.17;18.95;;;;;;;;;;5130350;27;20074;-61
2022/01/27 06:47:53;;;;;;;44.80;19.35;;;;;;;;;;5113242;27;20036;-62
2022/01/27 06:50:19;;;;;;;46.08;18.60;;;;;;;;;;5132111;27;20046;-60
2022/01/27 06:52:46;;;;;;;46.15;18.80;;;;;;;;;;5131882;27;20039;-61
2022/01/27 06:55:12;;;;;;;44.22;18.17;;;;;;;;;;5131893;27;20084;-60
2022/01/27 06:57:39;;;;;;;45.97;18.77;;;;;;;;;;5131787;27;20043;-62
2022/01/27 07:00:06;;;;;;;52.15;20.10;;;;;;;;;;5124720;27;20096;-61
2022/01/27 07:02:32;;;;;;;48.50;18.83;;;;;;;;;;5113343;27;20075;-61
2022/01/27 07:04:58;;;;;;;47.25;18.00;;;;;;;;;;5131281;27;20078;-62
2022/01/27 07:07:24;;;;;;;46.35;16.95;;;;;;;;;;5131707;27;20047;-60
2022/01/27 07:09:50;;;;;;;47.10;18.35;;;;;;;;;;5131376;27;20039;-62
2022/01/27 07:12:16;;;;;;;50.50;18.40;;;;;;;;;;5131844;27;20039;-61
2022/01/27 07:14:42;;;;;;;45.78;17.92;;;;;;;;;;5131353;27;20036;-61
2022/01/27 07:17:09;;;;;;;45.55;18.50;;;;;;;;;;5131764;28;20064;-61
2022/01/27 07:19:35;;;;;;;43.92;17.73;;;;;;;;;;5131668;28;20484;-62
2022/01/27 07:22:01;;;;;;;49.05;18.00;;;;;;;;;;5131245;28;20039;-60
2022/01/27 07:24:27;;;;;;;47.90;17.98;;;;;;;;;;5131482;28;20035;-60
2022/01/27 07:26:53;;;;;;;41.92;17.10;;;;;;;;;;5131095;28;20118;-60
2022/01/27 07:29:20;;;;;;;43.38;17.17;;;;;;;;;;5131496;28;20124;-60
2022/01/27 07:31:46;;;;;;;40.50;17.40;;;;;;;;;;5131373;27;20043;-60
2022/01/27 07:34:12;;;;;;;51.47;17.38;;;;;;;;;;5116667;28;20039;-61
2022/01/27 07:36:40;;;;;;;47.08;17.55;;;;;;;;;;5128207;28;20038;-61
2022/01/27 07:39:12;;;;;;;39.55;16.73;;;;;;;;;;5131266;27;20147;-61
2022/01/27 07:41:38;;;;;;;34.85;15.13;;;;;;;;;;5131319;27;20041;-61
2022/01/27 07:44:05;;;;;;;36.70;15.40;;;;;;;;;;5131448;28;20084;-61
2022/01/27 07:46:31;;;;;;;47.08;16.15;;;;;;;;;;5131519;28;20057;-61
2022/01/27 07:48:57;;;;;;;40.83;15.60;;;;;;;;;;5131098;28;20032;-60
2022/01/27 07:51:23;;;;;;;43.53;14.73;;;;;;;;;;5115577;28;20085;-61
2022/01/27 07:53:49;;;;;;;35.97;13.25;;;;;;;;;;5129124;28;20039;-60
2022/01/27 07:56:15;;;;;;;48.55;15.65;;;;;;;;;;5131031;28;20578;-61
2022/01/27 07:58:43;;;;;;;35.08;12.70;;;;;;;;;;5131496;28;20038;-61
2022/01/27 08:01:09;;;;;;;39.45;13.95;;;;;;;;;;5133474;27;20601;-61
2022/01/27 08:03:36;;;;;;;42.30;14.07;;;;;;;;;;5135286;27;20034;-59
2022/01/27 08:06:03;;;;;;;38.58;14.73;;;;;;;;;;5134520;27;20055;-62
2022/01/27 08:08:29;;;;;;;32.30;12.15;;;;;;;;;;5134934;27;20054;-61
2022/01/27 08:10:55;;;;;;;39.50;12.75;;;;;;;;;;5134515;27;20031;-60
2022/01/27 08:13:21;;;;;;;39.45;13.30;;;;;;;;;;5135332;27;20496;-60
2022/01/27 08:15:47;;;;;;;41.90;14.00;;;;;;;;;;5134961;27;20043;-61
2022/01/27 08:18:13;;;;;;;32.22;11.50;;;;;;;;;;5134604;27;20063;-61
2022/01/27 08:20:40;;;;;;;41.22;14.07;;;;;;;;;;5134851;27;20397;-59
2022/01/27 08:23:06;;;;;;;38.25;12.93;;;;;;;;;;5134567;27;20046;-61
2022/01/27 08:25:33;;;;;;;38.30;13.80;;;;;;;;;;5134689;27;20084;-60
2022/01/27 08:28:02;;;;;;;31.80;10.88;;;;;;;;;;5134678;27;20092;-61
2022/01/27 08:30:35;;;;;;;38.63;12.48;;;;;;;;;;5134880;27;20516;-60
2022/01/27 08:33:07;;;;;;;32.67;11.68;;;;;;;;;;5134468;27;20552;-61
2022/01/27 08:35:33;;;;;;;40.15;11.10;;;;;;;;;;5134574;27;20393;-61
2022/01/27 08:37:59;;;;;;;33.33;11.30;;;;;;;;;;5134305;27;20031;-61
2022/01/27 08:40:25;;;;;;;26.63;11.50;;;;;;;;;;5134592;27;20045;-61
2022/01/27 08:42:51;;;;;;;34.90;11.65;;;;;;;;;;5134322;27;20408;-61
2022/01/27 08:45:19;;;;;;;37.10;13.00;;;;;;;;;;5115945;27;20123;-61
2022/01/27 08:47:46;;;;;;;31.08;11.05;;;;;;;;;;5134396;27;20046;-61
2022/01/27 08:50:14;;;;;;;37.35;13.93;;;;;;;;;;5134004;27;20035;-61
2022/01/27 08:52:41;;;;;;;32.75;11.45;;;;;;;;;;5134097;27;20106;-61
2022/01/27 08:55:07;;;;;;;35.45;11.85;;;;;;;;;;5134037;27;20039;-60
2022/01/27 08:57:34;;;;;;;24.52;9.93;;;;;;;;;;5134203;27;20503;-61
2022/01/27 09:00:01;;;;;;;34.13;10.07;;;;;;;;;;5133871;27;20039;-61
2022/01/27 09:02:28;;;;;;;30.15;11.00;;;;;;;;;;5115688;27;20168;-62
2022/01/27 09:04:54;;;;;;;32.30;10.88;;;;;;;;;;5133945;27;20035;-61
2022/01/27 09:07:20;;;;;;;27.90;10.57;;;;;;;;;;5133437;27;20481;-62
2022/01/27 09:09:46;;;;;;;32.45;11.15;;;;;;;;;;5133994;27;20023;-61
2022/01/27 09:12:13;;;;;;;36.75;10.55;;;;;;;;;;5114207;27;20039;-61
2022/01/27 09:14:41;;;;;;;33.28;10.55;;;;;;;;;;5133869;27;20031;-62
2022/01/27 09:17:08;;;;;;;29.95;9.20;;;;;;;;;;5133758;27;20039;-61
2022/01/27 09:19:38;;;;;;;35.83;10.63;;;;;;;;;;5133523;27;20035;-61
2022/01/27 09:22:11;;;;;;;34.78;10.43;;;;;;;;;;5115438;27;20509;-61
2022/01/27 09:24:40;;;;;;;33.58;10.50;;;;;;;;;;5133972;27;20487;-61
2022/01/27 09:27:06;;;;;;;25.15;9.07;;;;;;;;;;5133462;27;20397;-60
2022/01/27 09:29:32;;;;;;;27.60;9.38;;;;;;;;;;5133364;27;20114;-62
2022/01/27 09:31:59;;;;;;;27.30;9.35;;;;;;;;;;5133606;27;20027;-61
2022/01/27 09:34:25;;;;;;;22.58;8.02;;;;;;;;;;5133212;27;20039;-60
2022/01/27 09:36:51;;;;;;;22.20;8.38;;;;;;;;;;5116805;27;20043;-61
2022/01/27 09:39:19;;;;;;;24.00;8.07;;;;;;;;;;5131401;27;20096;-62
2022/01/27 09:41:46;;;;;;;25.48;8.93;;;;;;;;;;5133303;27;20042;-61
2022/01/27 09:44:13;;;;;;;23.95;8.30;;;;;;;;;;5133074;27;20130;-61
2022/01/27 09:46:42;;;;;;;24.63;7.80;;;;;;;;;;5132822;27;20046;-62
2022/01/27 09:49:29;;;;;;;28.27;7.82;;;;;;;;;;5114936;27;20051;-61
2022/01/27 09:51:55;;;;;;;22.38;7.72;;;;;;;;;;5133407;27;20581;-61
2022/01/27 09:54:21;;;;;;;28.48;8.20;;;;;;;;;;5132820;27;20035;-62
2022/01/27 09:56:47;;;;;;;23.17;7.78;;;;;;;;;;5132904;27;20359;-61
2022/01/27 09:59:13;;;;;;;26.75;7.70;;;;;;;;;;5132738;27;20039;-61
2022/01/27 10:01:52;;;;;;;20.23;7.68;;;;;;;;;;5132637;27;20091;-62
2022/01/27 10:04:18;;;;;;;23.58;6.80;;;;;;;;;;5132789;27;20366;-62
2022/01/27 10:06:45;;;;;;;19.15;6.95;;;;;;;;;;5132115;27;20183;-61
2022/01/27 10:09:13;;;;;;;19.45;6.38;;;;;;;;;;5132732;27;20039;-62
2022/01/27 10:11:39;;;;;;;24.13;6.78;;;;;;;;;;5132996;27;20382;-61
2022/01/27 10:14:21;;;;;;;18.80;6.20;;;;;;;;;;5132448;27;20042;-60
2022/01/27 10:16:49;;;;;;;23.23;6.07;;;;;;;;;;5132391;27;20035;-61
2022/01/27 10:19:15;;;;;;;28.08;6.50;;;;;;;;;;5132595;27;20501;-61
2022/01/27 10:21:42;;;;;;;24.90;5.90;;;;;;;;;;5132280;27;20035;-61
2022/01/27 10:24:13;;;;;;;21.08;5.97;;;;;;;;;;5132099;27;20035;-60
2022/01/27 10:26:44;;;;;;;23.17;6.55;;;;;;;;;;5132003;27;20035;-61
2022/01/27 10:29:16;;;;;;;16.70;6.35;;;;;;;;;;5132588;27;20561;-61
2022/01/27 10:31:42;;;;;;;19.83;5.80;;;;;;;;;;5132059;27;20043;-61
2022/01/27 10:34:10;;;;;;;17.90;6.30;;;;;;;;;;5132323;27;20062;-62
2022/01/27 10:36:40;;;;;;;17.60;5.88;;;;;;;;;;5131910;27;20497;-62
2022/01/27 10:39:08;;;;;;;19.13;6.40;;;;;;;;;;5115461;27;20032;-61
2022/01/27 10:41:35;;;;;;;24.73;5.15;;;;;;;;;;5130517;27;20047;-61
2022/01/27 10:44:05;;;;;;;14.85;4.90;;;;;;;;;;5116864;27;20050;-60
2022/01/27 10:46:32;;;;;;;21.15;6.20;;;;;;;;;;5130058;27;20027;-63
2022/01/27 10:49:09;;;;;;;16.73;6.22;;;;;;;;;;5132144;27;20445;-62
2022/01/27 10:51:50;;;;;;;20.25;6.53;;;;;;;;;;5131725;27;20051;-59
2022/01/27 10:54:21;;;;;;;16.17;5.72;;;;;;;;;;5132096;27;20519;-61
2022/01/27 10:56:48;;;;;;;17.98;6.18;;;;;;;;;;5131870;27;20428;-62
2022/01/27 10:59:15;;;;;;;22.75;6.45;;;;;;;;;;5131925;27;20404;-62
2022/01/27 11:01:43;;;;;;;16.98;5.72;;;;;;;;;;5131622;27;20428;-60
2022/01/27 11:04:10;;;;;;;18.92;5.75;;;;;;;;;;5132047;27;20047;-61
2022/01/27 11:06:38;;;;;;;13.73;4.95;;;;;;;;;;5113069;27;20379;-61
2022/01/27 11:09:09;;;;;;;17.77;5.35;;;;;;;;;;5131900;27;20039;-61
2022/01/27 11:11:38;;;;;;;16.70;5.70;;;;;;;;;;5131675;27;20470;-62
2022/01/27 11:14:04;;;;;;;21.60;5.90;;;;;;;;;;5131791;27;20042;-60
2022/01/27 11:16:36;;;;;;;19.65;5.55;;;;;;;;;;5132103;28;20035;-60
2022/01/27 11:22:00;;;;;;;13.38;4.25;;;;;;;;;;5131381;28;20039;-61
2022/01/27 11:24:33;;;;;;;17.88;4.63;;;;;;;;;;5131566;27;20458;-61
2022/01/27 11:27:00;;;;;;;18.45;4.47;;;;;;;;;;5113377;28;20040;-63
2022/01/27 11:29:28;;;;;;;14.63;4.95;;;;;;;;;;5131472;28;20039;-61
2022/01/27 11:32:17;;;;;;;13.07;4.13;;;;;;;;;;5131428;28;20516;-61
2022/01/27 11:34:53;;;;;;;19.40;4.25;;;;;;;;;;5131126;27;20081;-61
2022/01/27 11:37:30;;;;;;;16.30;3.47;;;;;;;;;;5135580;27;20046;-61
2022/01/27 11:39:56;;;;;;;15.95;3.30;;;;;;;;;;5135477;27;20514;-60
2022/01/27 11:42:35;;;;;;;13.68;3.97;;;;;;;;;;5135745;27;20122;-61
2022/01/27 11:45:25;;;;;;;15.38;3.20;;;;;;;;;;5135429;27;20508;-62
2022/01/27 11:47:57;;;;;;;14.60;3.10;;;;;;;;;;5133858;27;20055;-62
2022/01/27 11:50:32;;;;;;;;;;;;;;;;;;5119428;27;20094;-60
2022/01/27 11:52:59;;;;;;;16.58;3.88;;;;;;;;;;5135001;27;19916;-62
2022/01/27 11:55:25;;;;;;;14.15;2.60;;;;;;;;;;5135384;27;20035;-61
2022/01/27 11:57:51;;;;;;;14.80;3.00;;;;;;;;;;5134979;27;20035;-62
2022/01/27 12:00:22;;;;;;;12.45;2.97;;;;;;;;;;5135090;27;20122;-60
2022/01/27 12:02:57;;;;;;;9.13;2.47;;;;;;;;;;5135113;27;20445;-61
2022/01/27 12:05:26;;;;;;;11.27;2.83;;;;;;;;;;5135148;27;20038;-61
2022/01/27 12:08:17;;;;;;;16.65;3.03;;;9.10;99.90;;;;;;5116012;27;20052;-63
2022/01/27 12:10:54;;;;;;;14.18;2.70;;;;;;;;;;5116817;27;20039;-62
2022/01/27 12:16:38;;;;;;;13.80;2.90;;;9.30;99.90;;;;;;5134672;27;20035;-62
2022/01/27 12:19:11;;;;;;;12.45;3.08;;;;;;;;;;5134671;27;20046;-60
2022/01/27 12:21:38;;;;;;;19.40;2.97;;;;;;;;;;5117457;27;20422;-61
2022/01/27 12:24:14;;;;;;;14.20;3.58;;;;;;;;;;5134455;27;20500;-61
2022/01/27 12:26:59;;;;;;;14.25;2.53;;;;;;;;;;5134798;27;20110;-61
2022/01/27 12:29:41;;;;;;;14.98;3.60;;;;;;;;;;5134573;27;20489;-62
2022/01/27 12:32:20;;;;;;;12.45;2.55;;;;;;;;;;5134660;27;20035;-62
2022/01/27 12:34:47;;;;;;;17.20;2.75;;;;;;;;;;5134659;27;20114;-61
2022/01/27 12:37:14;;;;;;;19.40;3.67;;;;;;;;;;5134335;27;20042;-63
2022/01/27 12:39:43;;;;;;;14.23;1.88;;;;;;;;;;5134452;27;20043;-62
2022/01/27 12:42:13;;;;;;;13.43;2.58;;;;;;;;;;5134520;27;20042;-61
2022/01/27 12:44:42;;;;;;;14.15;2.40;;;;;;;;;;5134517;27;20046;-62
2022/01/27 12:47:14;;;;;;;12.20;2.50;;;;;;;;;;5115736;27;20051;-61
2022/01/27 12:49:44;;;;;;;16.08;2.65;;;;;;;;;;5134454;27;20061;-61
2022/01/27 12:52:12;;;;;;;14.20;2.45;;;;;;;;;;5134062;27;20420;-63
2022/01/27 12:54:39;;;;;;;18.92;2.83;;;;;;;;;;5134647;27;20127;-62
2022/01/27 12:57:06;;;;;;;14.30;2.83;;;;;;;;;;5134157;27;20043;-61
2022/01/27 12:59:34;;;;;;;14.07;2.47;;;;;;;;;;5134421;27;20031;-62
2022/01/27 13:02:01;;;;;;;13.68;2.25;;;;;;;;;;5134050;27;20043;-62
2022/01/27 13:04:28;;;;;;;13.32;2.38;;;;;;;;;;5134072;27;20043;-60
2022/01/27 13:06:55;;;;;;;18.80;2.58;;;;;;;;;;5133591;27;20101;-61
2022/01/27 13:09:21;;;;;;;15.18;2.45;;;;;;;;;;5133886;27;20121;-62
2022/01/27 13:11:50;;;;;;;12.63;2.13;;;;;;;;;;5116599;27;20054;-61
2022/01/27 13:14:16;;;;;;;14.45;3.30;;;;;;;;;;5133346;27;20039;-60
2022/01/27 13:16:46;;;;;;;16.45;3.13;;;;;;;;;;5133741;27;20118;-61
2022/01/27 13:19:30;;;;;;;13.50;2.10;;;;;;;;;;5133371;27;20120;-61
2022/01/27 13:22:03;;;;;;;13.70;2.50;;;;;;;;;;5133806;27;20405;-61
2022/01/27 13:24:33;;;;;;;14.00;3.28;;;;;;;;;;5133610;27;20035;-60
2022/01/27 13:27:06;;;;;;;15.55;2.75;;;;;;;;;;5133495;27;20087;-60
2022/01/27 13:29:39;;;;;;;18.38;3.83;;;;;;;;;;5133525;27;20046;-61
2022/01/27 13:32:05;;;;;;;;;;;8.70;99.90;;;;;;5133821;27;20389;-61
2022/01/27 13:34:32;;;;;;;14.63;2.42;;;;;;;;;;5114790;27;19916;-61
2022/01/27 13:36:59;;;;;;;15.82;2.28;;;;;;;;;;5133504;27;20159;-61
2022/01/27 13:41:51;;;;;;;17.63;2.35;;;;;;;;;;5133321;27;20298;-62
2022/01/27 13:44:18;;;;;;;20.00;2.47;;;;;;;;;;5132923;27;20039;-62
2022/01/27 13:46:46;;;;;;;17.80;2.88;;;;;;;;;;5133352;27;20038;-61
2022/01/27 13:49:19;;;;;;;14.35;2.53;;;;;;;;;;5133189;27;20050;-61
2022/01/27 13:51:50;;;;;;;20.17;2.67;;;;;;;;;;5133230;27;20035;-62
2022/01/27 13:54:17;;;;;;;15.55;2.63;;;;;;;;;;5114777;27;20485;-62
2022/01/27 13:56:47;;;;;;;16.23;2.38;;;;;;;;;;5133099;27;20049;-60
2022/01/27 13:59:16;;;;;;;20.23;2.63;;;;;;;;;;5132217;27;20035;-61
2022/01/27 14:01:43;;;;;;;13.82;2.15;;;;;;;;;;5132952;27;20050;-61
2022/01/27 14:04:09;;;;;;;20.80;2.65;;;;;;;;;;5132738;27;20058;-61
2022/01/27 14:06:53;;;;;;;17.17;3.38;;;;;;;;;;5114105;27;20126;-61
2022/01/27 14:09:21;;;;;;;15.18;2.30;;;;;;;;;;5132478;27;20050;-62
2022/01/27 14:11:55;;;;;;;18.88;2.63;;;;;;;;;;5132953;27;20489;-62
2022/01/27 14:14:23;;;;;;;20.90;3.50;;;;;;;;;;5114291;27;20093;-62
2022/01/27 14:16:50;;;;;;;19.33;3.13;;;;;;;;;;5132767;27;20050;-62
2022/01/27 14:19:16;;;;;;;14.32;2.22;;;;;;;;;;5114435;27;20122;-62
2022/01/27 14:21:44;;;;;;;18.48;3.20;;;;;;;;;;5132469;27;20043;-61
2022/01/27 14:24:13;;;;;;;16.58;2.90;;;;;;;;;;5132348;27;20043;-61
2022/01/27 14:26:42;;;;;;;24.33;3.63;;;;;;;;;;5132480;27;20039;-62
2022/01/27 14:29:11;;;;;;;16.30;3.05;;;;;;;;;;5132478;27;20047;-63
2022/01/27 14:31:38;;;;;;;17.77;3.42;;;;;;;;;;5132312;27;20038;-62
2022/01/27 14:34:04;;;;;;;20.58;4.43;;;;;;;;;;5115430;27;20043;-61
2022/01/27 14:36:30;;;;;;;16.75;2.67;;;;;;;;;;5130852;27;20046;-62
2022/01/27 14:38:56;;;;;;;17.25;2.55;;;;;;;;;;5132095;27;20043;-63
2022/01/27 14:41:23;;;;;;;11.95;2.53;;;;;;;;;;5114008;27;20043;-61
2022/01/27 14:43:49;;;;;;;17.15;2.63;;;;;;;;;;5132143;27;20035;-61
2022/01/27 14:46:21;;;;;;;14.48;2.58;;;;;;;;;;5132166;27;20461;-62
2022/01/27 14:48:53;;;;;;;21.30;2.92;;;;;;;;;;5132096;27;20055;-61
2022/01/27 14:51:20;;;;;;;15.07;2.63;;;;;;;;;;5131814;27;20090;-63
2022/01/27 14:53:48;;;;;;;16.13;2.85;;;;;;;;;;5132092;27;20046;-61
2022/01/27 14:56:14;;;;;;;16.13;2.92;;;;;;;;;;5132087;27;20096;-61
2022/01/27 14:58:40;;;;;;;22.85;3.33;;;;;;;;;;5131716;27;20031;-61
2022/01/27 15:01:06;;;;;;;18.42;2.92;;;;;;;;;;5131770;27;20035;-61
2022/01/27 15:03:32;;;;;;;19.38;3.60;;;;;;;;;;5131505;27;20404;-61
2022/01/27 15:05:58;;;;;;;18.23;3.72;;;;;;;;;;5116505;27;20039;-61
2022/01/27 15:08:25;;;;;;;14.43;2.95;;;;;;;;;;5128633;27;20055;-61
2022/01/27 15:10:52;;;;;;;17.20;3.17;;;;;;;;;;5131762;27;20477;-61